Time;durP1;ratioP1;P1;durP2;ratioP2;P2;SDS_P1;SDS_P2;PMS_P1;PMS_P2;Temp;Humidity;BMP_temperature;BMP_pressure;BME280_temperature;BME280_humidity;BME280_pressure;Samples;Min_cycle;Max_cycle;Signal;HPM_P1;HPM_P2
2022/03/17 00:02:08;;;;;;;52.43;35.23;;;6.90;1.00;;;;;;6286445;28;20229;-55
2022/03/17 00:05:12;;;;;;;47.73;34.97;;;6.70;1.00;;;;;;6306454;28;20286;-54
2022/03/17 00:08:16;;;;;;;48.50;34.67;;;6.70;1.00;;;;;;6301613;28;20838;-55
2022/03/17 00:11:19;;;;;;;51.67;33.50;;;6.90;1.00;;;;;;6311177;28;20233;-55
2022/03/17 00:14:24;;;;;;;49.87;34.53;;;6.90;1.00;;;;;;6301561;28;20283;-55
2022/03/17 00:17:27;;;;;;;50.97;34.50;;;6.60;1.00;;;;;;6285593;28;20802;-55
2022/03/17 00:20:30;;;;;;;51.63;34.67;;;6.60;1.00;;;;;;6284822;28;20378;-55
2022/03/17 00:23:33;;;;;;;49.77;33.67;;;6.50;1.00;;;;;;6285658;28;20522;-53
2022/03/17 00:26:36;;;;;;;54.53;35.37;;;6.50;1.00;;;;;;6286848;28;20723;-55
2022/03/17 00:29:41;;;;;;;48.03;33.70;;;6.60;1.00;;;;;;6284684;28;20245;-55
2022/03/17 00:32:44;;;;;;;53.27;35.87;;;6.30;1.00;;;;;;6288141;28;20236;-55
2022/03/17 00:35:47;;;;;;;50.73;35.37;;;6.40;1.00;;;;;;6304200;28;20343;-54
2022/03/17 00:38:49;;;;;;;53.17;35.13;;;6.40;1.00;;;;;;6309814;28;20722;-53
2022/03/17 00:41:53;;;;;;;53.73;36.97;;;6.40;1.00;;;;;;6310717;28;20229;-53
2022/03/17 00:44:57;;;;;;;51.03;36.27;;;6.50;1.00;;;;;;6308070;28;22509;-55
2022/03/17 00:48:00;;;;;;;53.97;36.57;;;6.40;1.00;;;;;;6310726;28;20729;-55
2022/03/17 00:51:03;;;;;;;49.73;35.47;;;6.20;1.00;;;;;;6309504;28;20500;-55
2022/03/17 00:54:06;;;;;;;58.10;37.73;;;6.40;1.00;;;;;;6289653;28;20363;-54
2022/03/17 00:57:09;;;;;;;55.43;37.23;;;6.30;1.00;;;;;;6284895;28;20699;-55
2022/03/17 01:00:16;;;;;;;53.23;36.47;;;6.40;1.00;;;;;;6284770;28;20252;-55
2022/03/17 01:03:19;;;;;;;53.23;37.03;;;6.30;1.00;;;;;;6307887;28;20316;-53
2022/03/17 01:06:22;;;;;;;47.67;35.40;;;6.20;1.00;;;;;;6309009;28;20236;-54
2022/03/17 01:09:25;;;;;;;50.93;35.17;;;6.20;1.00;;;;;;6307989;28;20289;-55
2022/03/17 01:12:28;;;;;;;51.33;35.50;;;6.50;1.00;;;;;;6300402;28;20240;-54
2022/03/17 01:15:32;;;;;;;52.13;36.53;;;6.30;1.00;;;;;;6307028;28;20262;-54
2022/03/17 01:18:35;;;;;;;55.93;36.63;;;6.10;1.00;;;;;;6308698;28;20241;-54
2022/03/17 01:21:38;;;;;;;53.47;35.70;;;6.20;1.00;;;;;;6309302;28;20747;-55
2022/03/17 01:24:41;;;;;;;57.80;38.57;;;6.10;1.00;;;;;;6284147;28;20660;-55
2022/03/17 01:27:44;;;;;;;58.47;38.50;;;6.10;1.00;;;;;;6284440;28;20261;-54
2022/03/17 01:30:49;;;;;;;48.73;36.53;;;6.00;1.00;;;;;;6283415;28;20508;-55
2022/03/17 01:33:53;;;;;;;51.90;35.53;;;6.00;1.00;;;;;;6294803;28;20848;-55
2022/03/17 01:36:56;;;;;;;54.33;37.13;;;6.10;1.00;;;;;;6309413;28;20502;-53
2022/03/17 01:39:59;;;;;;;59.10;39.20;;;6.00;1.00;;;;;;6308054;28;20236;-55
2022/03/17 01:43:02;;;;;;;53.07;38.77;;;5.90;1.00;;;;;;6304623;28;20247;-54
2022/03/17 01:46:06;;;;;;;57.83;39.03;;;6.20;1.00;;;;;;6307192;28;20715;-54
2022/03/17 01:49:09;;;;;;;53.07;38.33;;;6.20;1.00;;;;;;6308534;28;20233;-54
2022/03/17 01:52:11;;;;;;;53.60;37.03;;;6.20;1.00;;;;;;6304529;28;20234;-54
2022/03/17 01:55:18;;;;;;;54.97;38.37;;;6.10;1.00;;;;;;6307696;28;22437;-54
2022/03/17 01:58:20;;;;;;;54.53;38.57;;;6.10;1.00;;;;;;6307771;28;20262;-54
2022/03/17 02:01:25;;;;;;;55.87;38.77;;;5.90;1.00;;;;;;6282771;28;20737;-54
2022/03/17 02:04:28;;;;;;;55.10;37.77;;;5.80;1.00;;;;;;6301744;28;20725;-55
2022/03/17 02:07:31;;;;;;;56.03;39.13;;;5.90;1.00;;;;;;6308208;28;20321;-55
2022/03/17 02:13:08;;;;;;;55.40;39.37;;;6.00;1.00;;;;;;6297455;28;20245;-54
2022/03/17 02:13:56;;;;;;;58.07;38.90;;;5.90;1.00;;;;;;6307697;28;21107;-54
2022/03/17 02:17:01;;;;;;;60.37;40.27;;;5.90;1.00;;;;;;6265908;28;20243;-53
2022/03/17 02:20:04;;;;;;;60.43;39.73;;;5.80;1.00;;;;;;6280694;28;20371;-56
2022/03/17 02:26:32;;;;;;;58.60;40.07;;;5.80;1.00;;;;;;6273688;28;20320;-54
2022/03/17 02:29:35;;;;;;;58.50;39.80;;;5.90;1.00;;;;;;6274914;28;20320;-54
2022/03/17 02:32:38;;;;;;;61.07;40.63;;;5.80;1.00;;;;;;6273436;28;20272;-54
2022/03/17 02:35:42;;;;;;;55.80;40.13;;;5.80;1.00;;;;;;6281211;28;20772;-54
2022/03/17 02:38:47;;;;;;;53.97;38.60;;;5.80;1.00;;;;;;6280863;28;20931;-55
2022/03/17 02:41:51;;;;;;;60.93;39.77;;;5.70;1.00;;;;;;6277912;28;20240;-57
2022/03/17 02:44:55;;;;;;;60.20;41.73;;;5.80;1.00;;;;;;6282102;28;20661;-55
2022/03/17 02:47:58;;;;;;;62.23;40.93;;;5.60;1.00;;;;;;6269903;28;20233;-54
2022/03/17 02:51:00;;;;;;;63.47;40.47;;;5.70;1.00;;;;;;6258400;28;20339;-54
2022/03/17 02:54:04;;;;;;;57.37;39.93;;;5.60;1.00;;;;;;6258381;28;20240;-54
2022/03/17 02:57:07;;;;;;;57.60;40.53;;;5.60;1.00;;;;;;6258879;28;20237;-55
2022/03/17 03:00:12;;;;;;;54.30;40.03;;;5.70;1.00;;;;;;6258552;28;20226;-54
2022/03/17 03:03:17;;;;;;;63.43;42.40;;;5.70;1.00;;;;;;6267530;28;20240;-54
2022/03/17 03:06:20;;;;;;;59.77;41.27;;;5.60;1.00;;;;;;6276595;28;20758;-54
2022/03/17 03:09:24;;;;;;;56.87;40.73;;;5.60;1.00;;;;;;6278802;28;20241;-55
2022/03/17 03:12:27;;;;;;;62.30;42.50;;;5.50;1.00;;;;;;6279871;28;20362;-56
2022/03/17 03:15:30;;;;;;;60.90;41.97;;;5.60;1.00;;;;;;6255942;28;20340;-54
2022/03/17 03:18:33;;;;;;;60.43;41.53;;;5.50;1.00;;;;;;6257885;28;20498;-54
2022/03/17 03:21:36;;;;;;;59.77;41.90;;;5.50;1.00;;;;;;6263814;28;20229;-54
2022/03/17 03:24:40;;;;;;;60.53;42.10;;;5.50;1.00;;;;;;6287513;28;20286;-53
2022/03/17 03:27:44;;;;;;;56.37;41.17;;;5.50;1.00;;;;;;6287804;28;20327;-55
2022/03/17 03:30:48;;;;;;;61.77;42.30;;;5.60;1.00;;;;;;6269406;28;20233;-54
2022/03/17 03:33:51;;;;;;;62.53;42.70;;;5.40;1.00;;;;;;6276619;28;20779;-56
2022/03/17 03:40:16;;;;;;;58.37;42.27;;;5.60;1.00;;;;;;6277475;28;20777;-55
2022/03/17 03:43:19;;;;;;;60.90;42.33;;;5.40;1.00;;;;;;6285111;28;20903;-55
2022/03/17 03:46:22;;;;;;;65.70;43.63;;;5.40;1.00;;;;;;6286998;28;20804;-55
2022/03/17 03:49:25;;;;;;;61.50;43.50;;;5.40;1.00;;;;;;6282489;28;20788;-55
2022/03/17 03:52:28;;;;;;;61.17;42.17;;;5.60;1.00;;;;;;6287918;28;20252;-54
2022/03/17 03:55:32;;;;;;;60.67;42.97;;;5.50;1.00;;;;;;6287706;28;20246;-54
2022/03/17 03:58:35;;;;;;;62.17;43.67;;;5.50;1.00;;;;;;6269703;28;20260;-55
2022/03/17 04:01:38;;;;;;;60.90;43.03;;;5.40;1.00;;;;;;6263108;28;20234;-54
2022/03/17 04:04:42;;;;;;;63.37;44.87;;;5.40;1.00;;;;;;6282758;28;20550;-53
2022/03/17 04:07:45;;;;;;;66.23;44.60;;;5.50;1.00;;;;;;6263414;28;20756;-56
2022/03/17 04:10:50;;;;;;;62.10;43.87;;;5.40;1.00;;;;;;6273423;28;20812;-54
2022/03/17 04:13:52;;;;;;;63.90;43.90;;;5.40;1.00;;;;;;6286109;28;20322;-55
2022/03/17 04:16:55;;;;;;;64.50;45.53;;;5.40;1.00;;;;;;6286905;28;20590;-53
2022/03/17 04:19:58;;;;;;;66.83;45.70;;;5.30;1.00;;;;;;6283940;28;20267;-54
2022/03/17 04:23:01;;;;;;;61.73;43.10;;;5.30;1.00;;;;;;6286909;28;20734;-54
2022/03/17 04:26:05;;;;;;;69.23;45.17;;;5.40;1.00;;;;;;6285508;28;20530;-54
2022/03/17 04:29:09;;;;;;;65.10;43.93;;;5.30;1.00;;;;;;6274676;28;20376;-55
2022/03/17 04:32:12;;;;;;;65.60;45.17;;;5.50;1.00;;;;;;6253997;28;20439;-54
2022/03/17 04:35:15;;;;;;;60.13;44.03;;;5.40;1.00;;;;;;6274906;28;20307;-54
2022/03/17 04:38:18;;;;;;;64.27;45.47;;;5.30;1.00;;;;;;6283491;28;20316;-54
2022/03/17 04:41:22;;;;;;;67.50;44.17;;;5.30;1.00;;;;;;6283361;28;20464;-54
2022/03/17 04:44:25;;;;;;;65.00;45.33;;;5.30;1.00;;;;;;6274489;28;21021;-55
2022/03/17 04:47:28;;;;;;;66.80;45.47;;;5.30;1.00;;;;;;6279062;28;20383;-55
2022/03/17 04:50:31;;;;;;;69.37;45.73;;;5.30;1.00;;;;;;6282940;28;20237;-54
2022/03/17 04:53:34;;;;;;;71.13;45.10;;;5.30;1.00;;;;;;6282996;28;20322;-55
2022/03/17 04:56:38;;;;;;;69.50;47.27;;;5.30;1.00;;;;;;6283434;28;20237;-54
2022/03/17 04:59:41;;;;;;;66.67;46.77;;;5.30;1.00;;;;;;6281199;28;20649;-54
2022/03/17 05:02:43;;;;;;;67.53;47.60;;;5.50;1.00;;;;;;6275041;28;20265;-54
2022/03/17 05:05:47;;;;;;;66.27;46.30;;;5.20;1.00;;;;;;6283320;28;20249;-55
2022/03/17 05:08:50;;;;;;;70.80;46.83;;;5.40;1.00;;;;;;6278718;28;20347;-53
2022/03/17 05:11:54;;;;;;;69.07;46.87;;;5.40;1.00;;;;;;6281562;28;20618;-55
2022/03/17 05:14:58;;;;;;;74.13;47.23;;;5.30;1.00;;;;;;6280727;28;20312;-54
2022/03/17 05:18:00;;;;;;;74.47;49.43;;;5.20;1.00;;;;;;6276543;28;20552;-55
2022/03/17 05:21:04;;;;;;;69.30;47.73;;;5.20;1.00;;;;;;6283045;28;20311;-54
2022/03/17 05:24:07;;;;;;;70.97;48.50;;;5.20;1.00;;;;;;6284053;28;20252;-54
2022/03/17 05:27:11;;;;;;;74.13;49.37;;;5.30;1.00;;;;;;6281003;28;20254;-55
2022/03/17 05:30:15;;;;;;;70.10;48.37;;;5.10;1.00;;;;;;6284045;28;20241;-54
2022/03/17 05:33:18;;;;;;;73.63;48.47;;;5.10;1.00;;;;;;6277613;28;20241;-55
2022/03/17 05:36:21;;;;;;;74.37;50.10;;;5.40;1.00;;;;;;6273314;28;20319;-54
2022/03/17 05:39:24;;;;;;;73.70;49.80;;;5.20;1.00;;;;;;6274229;28;20689;-55
2022/03/17 05:42:28;;;;;;;76.23;50.80;;;5.40;1.00;;;;;;6279411;28;20321;-55
2022/03/17 05:45:31;;;;;;;73.87;50.27;;;5.20;1.00;;;;;;6277485;28;20249;-55
2022/03/17 05:48:34;;;;;;;75.20;50.70;;;5.30;1.00;;;;;;6283942;28;20301;-55
2022/03/17 05:51:37;;;;;;;71.50;49.93;;;5.20;1.00;;;;;;6273738;28;20828;-55
2022/03/17 05:54:40;;;;;;;77.10;52.13;;;5.20;1.00;;;;;;6280955;28;20272;-56
2022/03/17 05:57:46;;;;;;;74.73;48.40;;;5.20;1.00;;;;;;6279411;28;20360;-55
2022/03/17 06:00:49;;;;;;;78.80;51.83;;;5.30;1.00;;;;;;6281009;28;20791;-54
2022/03/17 06:03:52;;;;;;;76.20;50.20;;;5.30;1.00;;;;;;6280971;28;20706;-54
2022/03/17 06:06:55;;;;;;;77.03;50.87;;;5.30;1.00;;;;;;6277818;28;20748;-55
2022/03/17 06:09:58;;;;;;;82.30;52.50;;;5.50;1.00;;;;;;6276478;28;20225;-55
2022/03/17 06:13:03;;;;;;;83.80;51.43;;;5.50;1.00;;;;;;6276755;28;20255;-54
2022/03/17 06:16:07;;;;;;;76.53;50.87;;;5.50;1.00;;;;;;6282267;28;20532;-53
2022/03/17 06:19:09;;;;;;;76.27;51.60;;;5.40;1.00;;;;;;6281171;28;20225;-54
2022/03/17 06:22:12;;;;;;;74.90;53.27;;;5.50;1.00;;;;;;6276936;28;20228;-54
2022/03/17 06:25:17;;;;;;;77.77;52.07;;;5.50;1.00;;;;;;6281486;28;20320;-54
2022/03/17 06:28:21;;;;;;;80.47;51.77;;;5.60;1.00;;;;;;6277902;28;20375;-54
2022/03/17 06:31:24;;;;;;;77.93;51.90;;;5.70;1.00;;;;;;6277287;28;20230;-53
2022/03/17 06:34:27;;;;;;;77.57;53.07;;;5.60;1.00;;;;;;6277001;28;20248;-54
2022/03/17 06:37:29;;;;;;;84.80;53.73;;;6.10;1.00;;;;;;6275848;28;20727;-54
2022/03/17 06:40:33;;;;;;;81.03;53.87;;;5.80;1.00;;;;;;6278936;28;22550;-54
2022/03/17 06:43:37;;;;;;;74.17;52.47;;;5.80;1.00;;;;;;6280717;28;20233;-55
2022/03/17 06:46:40;;;;;;;78.80;52.80;;;5.70;1.00;;;;;;6276794;28;20383;-54
2022/03/17 06:49:42;;;;;;;83.40;54.17;;;5.90;1.00;;;;;;6270469;28;20241;-55
2022/03/17 06:52:45;;;;;;;80.87;54.23;;;5.80;1.00;;;;;;6281088;28;20322;-55
2022/03/17 06:55:48;;;;;;;79.37;51.93;;;5.90;1.00;;;;;;6280518;28;20232;-55
2022/03/17 06:58:52;;;;;;;81.97;54.40;;;5.80;1.00;;;;;;6277529;28;20592;-56
2022/03/17 07:01:55;;;;;;;77.63;51.77;;;6.00;1.00;;;;;;6280528;28;20236;-55
2022/03/17 07:04:58;;;;;;;74.93;52.57;;;5.90;1.00;;;;;;6277659;28;20526;-55
2022/03/17 07:08:01;;;;;;;84.63;55.07;;;5.80;1.00;;;;;;6265290;28;20367;-55
2022/03/17 07:11:08;;;;;;;84.53;55.00;;;6.00;1.00;;;;;;6279630;28;20744;-62
2022/03/17 07:14:12;;;;;;;77.23;53.63;;;6.00;1.00;;;;;;6263718;28;20586;-54
2022/03/17 07:17:19;;;;;;;85.13;56.70;;;6.00;1.00;;;;;;6275659;28;20286;-55
2022/03/17 07:20:23;;;;;;;73.83;53.20;;;6.20;1.00;;;;;;6278211;28;20340;-56
2022/03/17 07:23:26;;;;;;;84.30;57.27;;;6.20;1.00;;;;;;6279646;28;20314;-55
2022/03/17 07:26:29;;;;;;;84.03;54.83;;;6.20;1.00;;;;;;6279906;28;20237;-55
2022/03/17 07:29:33;;;;;;;84.47;56.80;;;6.20;1.00;;;;;;6279435;28;20492;-55
2022/03/17 07:32:36;;;;;;;82.60;55.20;;;6.40;1.00;;;;;;6280752;28;20378;-53
2022/03/17 07:35:39;;;;;;;83.70;55.17;;;6.40;1.00;;;;;;6269033;28;20383;-55
2022/03/17 07:38:42;;;;;;;80.40;56.23;;;6.40;1.00;;;;;;6270971;28;20236;-54
2022/03/17 07:41:45;;;;;;;85.00;57.17;;;6.40;1.00;;;;;;6276161;28;20264;-56
2022/03/17 07:44:49;;;;;;;87.73;56.67;;;6.50;1.00;;;;;;6279300;28;20373;-53
2022/03/17 07:47:52;;;;;;;85.63;58.53;;;6.80;1.00;;;;;;6272861;28;20328;-54
2022/03/17 07:50:54;;;;;;;78.90;56.40;;;6.60;1.00;;;;;;6274142;28;20394;-54
2022/03/17 07:53:57;;;;;;;85.70;59.20;;;6.80;1.00;;;;;;6278085;28;20244;-54
2022/03/17 07:57:01;;;;;;;84.00;56.97;;;6.90;1.00;;;;;;6277510;28;20287;-54
2022/03/17 08:00:09;;;;;;;83.50;56.57;;;6.70;1.00;;;;;;6276870;28;20334;-54
2022/03/17 08:03:11;;;;;;;81.73;57.37;;;7.00;1.00;;;;;;6305828;28;20824;-55
2022/03/17 08:06:14;;;;;;;78.10;54.80;;;7.20;1.00;;;;;;6301620;28;20320;-55
2022/03/17 08:09:17;;;;;;;88.50;59.47;;;7.20;1.00;;;;;;6307861;28;20268;-54
2022/03/17 08:12:20;;;;;;;81.90;57.90;;;7.10;1.00;;;;;;6306022;28;20730;-55
2022/03/17 08:15:27;;;;;;;81.03;56.77;;;7.40;1.00;;;;;;6306347;28;20744;-53
2022/03/17 08:18:32;;;;;;;86.70;57.90;;;7.50;1.00;;;;;;6300504;28;20623;-54
2022/03/17 08:21:34;;;;;;;79.67;58.13;;;7.60;1.00;;;;;;6276012;28;20410;-55
2022/03/17 08:24:37;;;;;;;83.97;57.93;;;7.70;1.00;;;;;;6272986;28;20413;-56
2022/03/17 08:27:40;;;;;;;77.03;57.10;;;7.70;1.00;;;;;;6284064;28;20233;-53
2022/03/17 08:30:46;;;;;;;82.27;57.97;;;7.80;1.00;;;;;;6281645;28;20439;-55
2022/03/17 08:33:50;;;;;;;85.10;58.57;;;7.70;1.00;;;;;;6281137;28;20233;-54
2022/03/17 08:36:54;;;;;;;84.87;59.23;;;8.10;1.00;;;;;;6283639;28;20359;-55
2022/03/17 08:39:57;;;;;;;80.47;56.37;;;8.10;1.00;;;;;;6275072;28;20314;-53
2022/03/17 08:43:00;;;;;;;83.00;57.03;;;8.00;1.00;;;;;;6283293;28;20310;-54
2022/03/17 08:49:24;;;;;;;75.40;56.33;;;8.10;1.00;;;;;;6285536;28;20226;-54
2022/03/17 08:52:28;;;;;;;77.27;56.00;;;8.30;1.00;;;;;;6279607;28;20335;-53
2022/03/17 08:55:30;;;;;;;85.63;56.50;;;8.40;1.00;;;;;;6284307;28;20899;-53
2022/03/17 08:58:37;;;;;;;82.33;55.67;;;8.50;1.00;;;;;;6280665;28;20319;-53
2022/03/17 09:01:41;;;;;;;78.17;55.30;;;8.50;1.00;;;;;;6283475;28;20257;-54
2022/03/17 09:04:45;;;;;;;75.37;54.53;;;8.60;1.00;;;;;;6280154;28;20618;-54
2022/03/17 09:07:47;;;;;;;77.10;57.50;;;8.60;1.00;;;;;;6285162;28;20294;-55
2022/03/17 09:10:50;;;;;;;77.07;55.67;;;8.60;1.00;;;;;;6284573;28;20311;-55
2022/03/17 09:13:53;;;;;;;81.30;55.70;;;8.60;1.00;;;;;;6278838;28;20233;-55
2022/03/17 09:16:57;;;;;;;77.03;54.80;;;8.50;1.00;;;;;;6283705;28;20263;-56
2022/03/17 09:20:00;;;;;;;84.07;55.00;;;8.60;1.00;;;;;;6283535;28;20252;-54
2022/03/17 09:23:03;;;;;;;77.63;54.67;;;8.60;1.00;;;;;;6278106;28;20575;-55
2022/03/17 09:26:06;;;;;;;79.83;54.83;;;8.60;1.00;;;;;;6283579;28;20763;-54
2022/03/17 09:29:09;;;;;;;76.23;55.00;;;8.70;1.00;;;;;;6267327;28;20294;-54
2022/03/17 09:32:15;;;;;;;77.47;54.87;;;8.80;1.00;;;;;;6278351;28;20360;-55
2022/03/17 09:35:17;;;;;;;78.90;57.83;;;8.90;1.00;;;;;;6281762;28;20298;-55
2022/03/17 09:38:21;;;;;;;76.07;55.37;;;9.00;1.00;;;;;;6279900;28;20347;-54
2022/03/17 09:41:25;;;;;;;76.33;55.37;;;8.90;1.00;;;;;;6270710;28;20332;-54
2022/03/17 09:44:28;;;;;;;81.40;54.30;;;9.00;1.00;;;;;;6280166;28;20241;-53
2022/03/17 09:47:36;;;;;;;74.07;53.23;;;9.00;1.00;;;;;;6282990;28;20238;-55
2022/03/17 09:50:40;;;;;;;78.13;52.60;;;9.10;1.00;;;;;;6272296;28;20615;-55
2022/03/17 09:53:42;;;;;;;78.07;53.93;;;9.20;1.00;;;;;;6283078;28;20538;-54
2022/03/17 09:56:45;;;;;;;74.27;52.83;;;9.40;1.00;;;;;;6282590;28;20950;-55
2022/03/17 09:59:49;;;;;;;70.20;51.47;;;9.30;1.00;;;;;;6280143;28;20233;-54
2022/03/17 10:02:53;;;;;;;69.73;51.60;;;9.40;1.00;;;;;;6279670;28;20303;-55
2022/03/17 10:05:58;;;;;;;75.67;55.27;;;9.50;1.00;;;;;;6282465;28;20271;-54
2022/03/17 10:09:00;;;;;;;73.67;54.63;;;9.50;1.00;;;;;;6277300;28;20320;-55
2022/03/17 10:12:08;;;;;;;70.10;53.97;;;9.50;1.00;;;;;;6285770;28;20819;-54
2022/03/17 10:15:19;;;;;;;71.57;53.47;;;9.60;1.00;;;;;;6287950;28;20306;-54
2022/03/17 10:18:25;;;;;;;73.67;54.10;;;9.70;1.00;;;;;;6302137;28;20234;-55
2022/03/17 10:21:28;;;;;;;77.40;55.83;;;9.80;1.00;;;;;;6282436;28;20793;-55
2022/03/17 10:24:36;;;;;;;74.17;54.50;;;9.90;1.00;;;;;;6273611;28;20734;-56
2022/03/17 10:27:40;;;;;;;69.77;53.60;;;10.00;1.00;;;;;;6277570;28;20585;-59
2022/03/17 10:30:43;;;;;;;68.90;51.37;;;10.10;1.00;;;;;;6280290;28;20817;-55
2022/03/17 10:33:54;;;;;;;71.10;53.07;;;10.20;1.00;;;;;;6273627;28;20244;-55
2022/03/17 10:41:19;;;;;;;67.53;52.13;;;10.40;1.00;;;;;;6270764;28;20241;-56
2022/03/17 10:44:21;;;;;;;70.47;53.33;;;10.30;1.00;;;;;;6301030;28;20252;-54
2022/03/17 10:47:26;;;;;;;69.30;51.77;;;10.30;1.00;;;;;;6309671;28;20309;-55
2022/03/17 10:50:39;;;;;;;70.73;53.80;;;10.40;1.00;;;;;;6301304;28;20244;-55
2022/03/17 10:53:41;;;;;;;74.10;55.73;;;10.40;1.00;;;;;;6306746;28;20254;-55
2022/03/17 10:56:59;;;;;;;74.03;53.03;;;10.30;1.00;;;;;;6306577;28;20323;-55
2022/03/17 11:00:03;;;;;;;72.30;53.23;;;10.50;1.00;;;;;;6305487;28;20239;-54
2022/03/17 11:03:06;;;;;;;68.57;52.47;;;10.70;1.00;;;;;;6306499;28;20240;-54
2022/03/17 11:06:11;;;;;;;74.80;53.60;;;10.70;1.00;;;;;;6302138;28;20244;-55
2022/03/17 11:09:14;;;;;;;72.73;54.73;;;10.70;1.00;;;;;;6304396;28;20240;-55
2022/03/17 11:12:20;;;;;;;70.47;51.93;;;10.70;1.00;;;;;;6303119;28;20237;-55
2022/03/17 11:15:27;;;;;;;71.70;53.93;;;10.70;1.00;;;;;;6290400;28;20259;-54
2022/03/17 11:18:36;;;;;;;71.80;53.63;;;10.70;1.00;;;;;;6307216;28;20325;-54
2022/03/17 11:21:44;;;;;;;71.30;51.40;;;10.70;1.00;;;;;;6304350;28;20323;-55
2022/03/17 11:25:08;;;;;;;72.93;51.33;;;10.90;1.00;;;;;;6299264;28;20272;-55
2022/03/17 11:28:11;;;;;;;64.43;50.27;;;11.00;1.00;;;;;;6306620;28;20229;-55
2022/03/17 11:31:20;;;;;;;67.43;49.97;;;11.20;1.00;;;;;;6304739;28;20386;-55
2022/03/17 11:34:46;;;;;;;62.33;47.93;;;11.10;1.00;;;;;;6301780;28;20299;-55
2022/03/17 11:37:50;;;;;;;63.63;47.43;;;11.10;1.00;;;;;;6300962;28;20639;-56
2022/03/17 11:41:07;;;;;;;61.60;46.33;;;11.20;1.00;;;;;;6300649;28;20359;-54
2022/03/17 11:44:10;;;;;;;60.63;47.23;;;11.30;1.00;;;;;;6308293;28;20267;-53
2022/03/17 11:47:12;;;;;;;62.53;46.77;;;11.30;1.00;;;;;;6311453;28;20229;-55
2022/03/17 11:50:23;;;;;;;66.70;47.50;;;11.30;1.00;;;;;;6301491;28;20225;-54
2022/03/17 11:53:39;;;;;;;58.40;46.80;;;11.40;1.00;;;;;;6304752;28;20233;-56
2022/03/17 11:56:54;;;;;;;60.47;45.97;;;11.40;1.00;;;;;;6310190;28;20233;-54
2022/03/17 11:59:58;;;;;;;62.97;45.30;;;11.30;1.00;;;;;;6308503;28;20377;-54
2022/03/17 12:03:06;;;;;;;57.30;44.50;;;11.50;1.00;;;;;;6309238;28;20288;-56
2022/03/17 12:06:17;;;;;;;56.87;43.33;;;11.50;1.00;;;;;;6310157;28;20237;-56
2022/03/17 12:09:32;;;;;;;52.57;41.23;;;11.70;1.00;;;;;;6307623;28;20317;-55
2022/03/17 12:12:37;;;;;;;56.23;42.63;;;11.80;1.00;;;;;;6310716;28;20729;-55
2022/03/17 12:15:45;;;;;;;53.67;42.17;;;11.80;1.00;;;;;;6309999;28;20465;-53
2022/03/17 12:19:01;;;;;;;52.23;41.77;;;11.90;1.00;;;;;;6304647;28;20238;-56
2022/03/17 12:22:12;;;;;;;52.87;40.50;;;12.00;1.00;;;;;;6306200;28;20253;-55
2022/03/17 12:25:18;;;;;;;50.97;39.47;;;12.20;1.00;;;;;;6309004;28;20609;-56
2022/03/17 12:28:22;;;;;;;50.00;39.93;;;12.30;1.00;;;;;;6309155;28;20320;-55
2022/03/17 12:31:24;;;;;;;48.20;39.23;;;12.30;1.00;;;;;;6307380;28;20495;-56
2022/03/17 12:34:28;;;;;;;46.23;38.97;;;12.20;1.00;;;;;;6310092;28;20664;-54
2022/03/17 12:37:33;;;;;;;50.90;40.93;;;12.30;1.00;;;;;;6308925;28;20612;-54
2022/03/17 12:40:43;;;;;;;52.30;42.80;;;12.30;1.00;;;;;;6305797;28;20318;-54
2022/03/17 12:43:46;;;;;;;49.73;39.50;;;12.30;1.00;;;;;;6303708;28;20240;-55
2022/03/17 12:46:49;;;;;;;45.93;39.30;;;12.30;1.00;;;;;;6308738;28;20408;-54
2022/03/17 12:49:53;;;;;;;49.77;39.80;;;12.20;1.00;;;;;;6309278;28;20239;-53
2022/03/17 12:52:56;;;;;;;49.53;40.87;;;12.20;1.00;;;;;;6310327;28;20271;-54
2022/03/17 12:56:01;;;;;;;55.77;40.83;;;12.30;1.00;;;;;;6308538;28;20244;-54
2022/03/17 12:59:05;;;;;;;52.50;41.53;;;12.30;1.00;;;;;;6304222;28;20983;-54
2022/03/17 13:02:08;;;;;;;50.70;41.40;;;12.20;1.00;;;;;;6304346;28;20221;-55
2022/03/17 13:08:37;;;;;;;55.10;38.70;;;12.10;1.00;;;;;;6308165;28;20340;-57
2022/03/17 13:15:04;;;;;;;52.13;39.10;;;12.20;1.00;;;;;;6299945;28;20657;-62
2022/03/17 13:18:09;;;;;;;52.07;38.90;;;12.20;1.00;;;;;;6308749;28;20757;-53
2022/03/17 13:21:13;;;;;;;44.60;38.57;;;12.20;1.00;;;;;;6307665;28;20232;-55
2022/03/17 13:24:17;;;;;;;54.60;42.07;;;12.10;1.00;;;;;;6306112;28;20558;-55
2022/03/17 13:27:27;;;;;;;53.47;40.73;;;12.20;1.00;;;;;;6308015;28;20755;-56
2022/03/17 13:30:34;;;;;;;51.63;40.63;;;12.20;1.00;;;;;;6307549;28;20331;-54
2022/03/17 13:33:37;;;;;;;53.40;41.37;;;12.20;1.00;;;;;;6302737;28;20240;-54
2022/03/17 13:36:53;;;;;;;51.97;39.83;;;12.20;1.00;;;;;;6305655;28;20382;-55
2022/03/17 13:40:02;;;;;;;50.30;39.50;;;12.30;1.00;;;;;;6309552;28;20409;-55
2022/03/17 13:43:07;;;;;;;46.03;38.07;;;12.40;1.00;;;;;;6304816;28;20325;-54
2022/03/17 13:46:18;;;;;;;50.63;37.43;;;12.60;1.00;;;;;;6305559;28;20259;-58
2022/03/17 13:49:27;;;;;;;46.37;36.40;;;12.70;1.00;;;;;;6302836;28;20316;-55
2022/03/17 13:52:29;;;;;;;45.53;35.83;;;12.60;1.00;;;;;;6301217;28;20320;-56
2022/03/17 13:55:44;;;;;;;47.37;36.63;;;12.60;1.00;;;;;;6309340;28;20244;-58
2022/03/17 13:58:58;;;;;;;44.43;35.30;;;12.50;1.00;;;;;;6308982;28;20712;-55
2022/03/17 14:02:11;;;;;;;46.00;35.23;;;12.60;1.00;;;;;;6305501;28;20590;-55
2022/03/17 14:05:15;;;;;;;47.43;36.53;;;12.70;1.00;;;;;;6304905;28;20720;-55
2022/03/17 14:08:21;;;;;;;44.53;35.60;;;12.60;1.00;;;;;;6295842;28;20237;-55
2022/03/17 14:11:26;;;;;;;46.30;36.10;;;12.60;1.00;;;;;;6306568;28;20259;-56
2022/03/17 14:14:30;;;;;;;48.00;37.23;;;12.60;1.00;;;;;;6302054;28;20774;-54
2022/03/17 14:17:33;;;;;;;46.50;37.73;;;12.60;1.00;;;;;;6308777;28;20281;-55
2022/03/17 14:20:36;;;;;;;44.43;36.00;;;12.60;1.00;;;;;;6305015;28;20305;-54
2022/03/17 14:27:00;;;;;;;42.33;35.23;;;12.50;1.00;;;;;;6308240;28;20324;-55
2022/03/17 14:30:06;;;;;;;44.27;36.10;;;12.60;1.00;;;;;;6308791;28;20240;-54
2022/03/17 14:33:09;;;;;;;44.57;36.63;;;12.50;1.00;;;;;;6301709;28;20255;-55
2022/03/17 14:36:12;;;;;;;43.43;36.20;;;12.50;1.00;;;;;;6304090;28;20240;-54
2022/03/17 14:39:15;;;;;;;45.43;34.67;;;12.60;1.00;;;;;;6305552;28;20308;-55
2022/03/17 14:42:18;;;;;;;42.30;34.27;;;12.60;1.00;;;;;;6304461;28;20229;-54
2022/03/17 14:45:22;;;;;;;39.07;33.90;;;12.50;1.00;;;;;;6303146;28;20568;-56
2022/03/17 14:48:25;;;;;;;36.10;32.30;;;12.50;1.00;;;;;;6309749;28;20459;-55
2022/03/17 14:51:30;;;;;;;46.27;34.63;;;12.50;1.00;;;;;;6297980;28;20317;-55
2022/03/17 14:54:53;;;;;;;40.53;34.27;;;12.40;1.00;;;;;;6292674;28;20237;-54
2022/03/17 14:57:55;;;;;;;42.23;34.90;;;12.50;1.00;;;;;;6307528;28;20323;-55
2022/03/17 15:01:00;;;;;;;40.50;34.07;;;12.50;1.00;;;;;;6305972;28;20391;-55
2022/03/17 15:04:03;;;;;;;45.07;34.73;;;12.40;1.00;;;;;;6307641;28;20319;-60
2022/03/17 15:07:06;;;;;;;42.73;34.57;;;12.40;1.00;;;;;;6304507;28;20229;-54
2022/03/17 15:10:10;;;;;;;41.73;33.97;;;12.40;1.00;;;;;;6304153;28;20232;-55
2022/03/17 15:13:14;;;;;;;41.50;34.20;;;12.30;1.00;;;;;;6299468;28;20740;-54
2022/03/17 15:16:19;;;;;;;40.83;33.67;;;12.30;1.00;;;;;;6302280;28;20233;-54
2022/03/17 15:19:22;;;;;;;42.87;35.63;;;12.20;1.00;;;;;;6311965;28;20502;-55
2022/03/17 15:22:25;;;;;;;44.83;35.20;;;12.20;1.00;;;;;;6311059;28;20238;-55
2022/03/17 15:25:28;;;;;;;49.97;34.50;;;12.10;1.00;;;;;;6311284;28;20247;-54
2022/03/17 15:31:52;;;;;;;44.90;34.70;;;12.10;1.00;;;;;;6303110;28;20249;-54
2022/03/17 15:34:55;;;;;;;47.30;34.80;;;12.10;1.00;;;;;;6307964;28;20324;-54
2022/03/17 15:37:58;;;;;;;44.97;35.23;;;12.10;1.00;;;;;;6311122;28;20825;-55
2022/03/17 15:41:01;;;;;;;44.87;36.10;;;12.10;1.00;;;;;;6307434;28;20839;-54
2022/03/17 15:44:04;;;;;;;45.67;35.77;;;12.10;1.00;;;;;;6311359;28;20240;-54
2022/03/17 15:47:09;;;;;;;45.30;36.67;;;12.00;1.00;;;;;;6306737;28;20257;-54
2022/03/17 15:50:12;;;;;;;41.47;34.33;;;12.00;1.00;;;;;;6310173;28;20231;-55
2022/03/17 15:53:15;;;;;;;42.33;35.97;;;12.00;1.00;;;;;;6311316;28;20812;-54
2022/03/17 15:56:18;;;;;;;48.27;37.27;;;11.90;1.00;;;;;;6311894;28;20524;-54
2022/03/17 15:59:22;;;;;;;47.03;37.03;;;11.80;1.00;;;;;;6311247;28;20313;-56
2022/03/17 16:02:26;;;;;;;44.57;35.67;;;11.80;1.00;;;;;;6305550;28;20313;-55
2022/03/17 16:05:30;;;;;;;43.47;35.20;;;11.80;1.00;;;;;;6311072;28;20725;-55
2022/03/17 16:08:33;;;;;;;43.43;36.20;;;11.80;1.00;;;;;;6312483;28;20763;-56
2022/03/17 16:14:57;;;;;;;45.83;36.47;;;11.80;1.00;;;;;;6301132;28;20309;-55
2022/03/17 16:18:02;;;;;;;46.00;36.60;;;11.70;1.00;;;;;;6311898;28;20716;-55
2022/03/17 16:21:05;;;;;;;45.60;36.90;;;11.80;1.00;;;;;;6307954;28;20287;-54
2022/03/17 16:24:09;;;;;;;44.80;36.73;;;11.60;1.00;;;;;;6309218;28;20305;-56
2022/03/17 16:27:12;;;;;;;45.17;38.20;;;11.70;1.00;;;;;;6306644;28;20236;-55